Time,TemperatureF,DewpointF,PressureIn,WindDirection,WindDirectionDegrees,WindSpeedMPH,WindSpeedGustMPH,Humidity,HourlyPrecipIn,Conditions,Clouds,dailyrainin,SoftwareType,DateUTC
2013-03-04 00:01:00,62.0,33.0,29.78,South,173,13.0,13.0,33,0.00,,,0.00,,2013-03-04 06:01:00,
2013-03-04 00:11:00,62.0,33.0,29.78,South,173,13.0,13.0,33,0.00,,,0.00,,2013-03-04 06:11:00,
2013-03-04 00:21:00,61.0,32.0,29.77,SSW,194,12.0,16.0,34,0.00,,,0.00,,2013-03-04 06:21:00,
2013-03-04 00:31:00,61.0,32.0,29.76,SSW,205,12.0,14.0,34,0.00,,,0.00,,2013-03-04 06:31:00,
2013-03-04 00:42:00,61.0,32.0,29.76,SSW,205,12.0,14.0,34,0.00,,,0.00,,2013-03-04 06:42:00,
2013-03-04 00:52:00,61.0,32.0,29.76,South,181,16.0,16.0,34,0.00,,,0.00,,2013-03-04 06:52:00,
2013-03-04 01:01:00,61.0,33.0,29.76,South,181,15.0,15.0,35,0.00,,,0.00,,2013-03-04 07:01:00,
2013-03-04 01:11:00,61.0,33.0,29.76,South,181,15.0,15.0,35,0.00,,,0.00,,2013-03-04 07:11:00,
2013-03-04 01:21:00,62.0,34.0,29.76,SE,142,15.0,15.0,35,0.00,,,0.00,,2013-03-04 07:21:00,
2013-03-04 01:32:00,62.0,34.0,29.76,SW,215,14.0,21.0,35,0.00,,,0.00,,2013-03-04 07:32:00,
2013-03-04 01:41:00,62.0,34.0,29.76,SW,215,14.0,21.0,35,0.00,,,0.00,,2013-03-04 07:41:00,
2013-03-04 01:52:00,61.0,33.0,29.76,SW,225,13.0,13.0,35,0.00,,,0.00,,2013-03-04 07:52:00,
2013-03-04 02:01:00,61.0,34.0,29.76,SW,218,11.0,11.0,36,0.00,,,0.00,,2013-03-04 08:01:00,
2013-03-04 02:11:00,60.0,34.0,29.76,SSW,203,12.0,12.0,37,0.00,,,0.00,,2013-03-04 08:11:00,
2013-03-04 02:21:00,60.0,34.0,29.76,SSW,203,12.0,12.0,37,0.00,,,0.00,,2013-03-04 08:21:00,
2013-03-04 02:32:00,61.0,35.0,29.76,SSW,205,11.0,11.0,37,0.00,,,0.00,,2013-03-04 08:32:00,
2013-03-04 02:41:00,61.0,35.0,29.76,SSW,205,11.0,11.0,37,0.00,,,0.00,,2013-03-04 08:41:00,
2013-03-04 02:52:00,61.0,35.0,29.77,SSE,162,9.0,9.0,37,0.00,,,0.00,,2013-03-04 08:52:00,
2013-03-04 03:01:00,60.0,34.0,29.76,SE,146,7.0,7.0,38,0.00,,,0.00,,2013-03-04 09:01:00,
2013-03-04 03:11:00,60.0,34.0,29.76,SE,146,7.0,7.0,38,0.00,,,0.00,,2013-03-04 09:11:00,
2013-03-04 03:21:00,59.0,34.0,29.75,South,183,8.0,10.0,39,0.00,,,0.00,,2013-03-04 09:21:00,
2013-03-04 03:32:00,60.0,35.0,29.75,SSW,194,14.0,14.0,39,0.00,,,0.00,,2013-03-04 09:32:00,
2013-03-04 03:42:00,60.0,35.0,29.75,SSW,194,14.0,14.0,39,0.00,,,0.00,,2013-03-04 09:42:00,
2013-03-04 03:52:00,60.0,35.0,29.76,WSW,243,14.0,14.0,39,0.00,,,0.00,,2013-03-04 09:52:00,
2013-03-04 04:01:00,59.0,35.0,29.75,SW,215,14.0,14.0,40,0.00,,,0.00,,2013-03-04 10:01:00,
2013-03-04 04:11:00,59.0,35.0,29.75,SW,215,14.0,14.0,40,0.00,,,0.00,,2013-03-04 10:11:00,
2013-03-04 04:21:00,59.0,35.0,29.76,SW,226,11.0,11.0,41,0.00,,,0.00,,2013-03-04 10:21:00,
2013-03-04 04:31:00,58.0,35.0,29.77,WSW,239,7.0,8.0,42,0.00,,,0.00,,2013-03-04 10:31:00,
2013-03-04 04:42:00,56.0,34.0,29.77,SW,231,10.0,15.0,44,0.00,,,0.00,,2013-03-04 10:42:00,
2013-03-04 04:52:00,56.0,34.0,29.77,SW,231,10.0,15.0,44,0.00,,,0.00,,2013-03-04 10:52:00,
2013-03-04 05:01:00,55.0,34.0,29.78,WSW,238,9.0,9.0,45,0.00,,,0.00,,2013-03-04 11:01:00,
2013-03-04 05:11:00,55.0,34.0,29.78,WSW,238,9.0,9.0,45,0.00,,,0.00,,2013-03-04 11:11:00,
2013-03-04 05:21:00,53.0,34.0,29.78,WSW,252,8.0,8.0,48,0.00,,,0.00,,2013-03-04 11:21:00,
2013-03-04 05:32:00,53.0,34.0,29.79,WNW,288,4.0,4.0,49,0.00,,,0.00,,2013-03-04 11:32:00,
2013-03-04 05:42:00,53.0,34.0,29.79,WNW,288,4.0,4.0,49,0.00,,,0.00,,2013-03-04 11:42:00,
2013-03-04 05:52:00,51.0,34.0,29.79,West,267,5.0,6.0,53,0.00,,,0.00,,2013-03-04 11:52:00,
2013-03-04 06:01:00,48.0,33.0,29.80,West,262,6.0,6.0,56,0.00,,,0.00,,2013-03-04 12:01:00,
2013-03-04 06:11:00,48.0,34.0,29.80,SW,231,6.0,7.0,57,0.00,,,0.00,,2013-03-04 12:11:00,
2013-03-04 06:22:00,48.0,34.0,29.80,SW,231,6.0,7.0,57,0.00,,,0.00,,2013-03-04 12:22:00,
2013-03-04 06:32:00,48.0,34.0,29.80,SW,228,5.0,5.0,58,0.00,,,0.00,,2013-03-04 12:32:00,
2013-03-04 06:42:00,48.0,34.0,29.80,SW,228,5.0,5.0,58,0.00,,,0.00,,2013-03-04 12:42:00,
2013-03-04 06:53:00,47.0,33.0,29.80,WSW,239,5.0,5.0,59,0.00,,,0.00,,2013-03-04 12:53:00,
2013-03-04 07:02:00,46.0,33.0,29.81,SW,235,3.0,6.0,61,0.00,,,0.00,,2013-03-04 13:02:00,
2013-03-04 07:11:00,46.0,33.0,29.81,SW,235,3.0,6.0,61,0.00,,,0.00,,2013-03-04 13:11:00,
2013-03-04 07:21:00,45.0,33.0,29.81,SW,231,4.0,4.0,63,0.00,,,0.00,,2013-03-04 13:21:00,
2013-03-04 07:32:00,45.0,34.0,29.82,WSW,242,5.0,5.0,65,0.00,,,0.00,,2013-03-04 13:32:00,
2013-03-04 07:41:00,45.0,34.0,29.82,WSW,242,5.0,5.0,65,0.00,,,0.00,,2013-03-04 13:41:00,
2013-03-04 07:52:00,47.0,36.0,29.82,WSW,243,4.0,5.0,65,0.00,,,0.00,,2013-03-04 13:52:00,
2013-03-04 08:01:00,52.0,39.0,29.83,SW,217,4.0,4.0,61,0.00,,,0.00,,2013-03-04 14:01:00,
2013-03-04 08:11:00,52.0,39.0,29.83,SW,217,4.0,4.0,61,0.00,,,0.00,,2013-03-04 14:11:00,
2013-03-04 08:22:00,54.0,40.0,29.83,WSW,243,4.0,5.0,58,0.00,,,0.00,,2013-03-04 14:22:00,
2013-03-04 08:32:00,57.0,41.0,29.83,SW,231,7.0,7.0,55,0.00,,,0.00,,2013-03-04 14:32:00,
2013-03-04 08:42:00,57.0,41.0,29.83,SW,231,7.0,7.0,55,0.00,,,0.00,,2013-03-04 14:42:00,
2013-03-04 08:52:00,60.0,43.0,29.83,WSW,253,3.0,4.0,53,0.00,,,0.00,,2013-03-04 14:52:00,
2013-03-04 09:01:00,61.0,43.0,29.83,NNW,328,3.0,4.0,51,0.00,,,0.00,,2013-03-04 15:01:00,
2013-03-04 09:11:00,61.0,43.0,29.83,NNW,328,3.0,4.0,51,0.00,,,0.00,,2013-03-04 15:11:00,
2013-03-04 09:21:00,63.0,44.0,29.84,WSW,250,3.0,3.0,50,0.00,,,0.00,,2013-03-04 15:21:00,
2013-03-04 09:32:00,69.0,44.0,29.83,WSW,256,8.0,8.0,41,0.00,,,0.00,,2013-03-04 15:32:00,
2013-03-04 09:42:00,69.0,44.0,29.83,WSW,256,8.0,8.0,41,0.00,,,0.00,,2013-03-04 15:42:00,
2013-03-04 09:52:00,69.0,44.0,29.83,West,262,9.0,11.0,40,0.00,,,0.00,,2013-03-04 15:52:00,
2013-03-04 10:02:00,70.0,42.0,29.82,WSW,246,10.0,11.0,36,0.00,,,0.00,,2013-03-04 16:02:00,
2013-03-04 10:11:00,70.0,42.0,29.82,WSW,246,10.0,11.0,36,0.00,,,0.00,,2013-03-04 16:11:00,
2013-03-04 10:21:00,69.0,42.0,29.82,SW,221,11.0,11.0,37,0.00,,,0.00,,2013-03-04 16:21:00,
2013-03-04 10:31:00,72.0,44.0,29.83,WSW,257,9.0,13.0,36,0.00,,,0.00,,2013-03-04 16:31:00,
2013-03-04 10:42:00,72.0,44.0,29.83,WSW,257,9.0,13.0,36,0.00,,,0.00,,2013-03-04 16:42:00,
2013-03-04 10:52:00,73.0,44.0,29.82,West,277,10.0,10.0,35,0.00,,,0.00,,2013-03-04 16:52:00,
2013-03-04 11:02:00,76.0,44.0,29.82,West,267,8.0,8.0,32,0.00,,,0.00,,2013-03-04 17:02:00,
2013-03-04 11:11:00,76.0,44.0,29.82,West,267,8.0,8.0,32,0.00,,,0.00,,2013-03-04 17:11:00,
2013-03-04 11:22:00,77.0,42.0,29.81,West,278,8.0,8.0,29,0.00,,,0.00,,2013-03-04 17:22:00,
2013-03-04 11:32:00,79.0,42.0,29.80,WNW,295,8.0,8.0,27,0.00,,,0.00,,2013-03-04 17:32:00,
2013-03-04 11:42:00,79.0,42.0,29.80,WNW,295,8.0,8.0,27,0.00,,,0.00,,2013-03-04 17:42:00,
2013-03-04 11:52:00,80.0,42.0,29.80,WSW,243,9.0,9.0,26,0.00,,,0.00,,2013-03-04 17:52:00,
2013-03-04 12:01:00,80.0,42.0,29.80,West,276,9.0,9.0,26,0.00,,,0.00,,2013-03-04 18:01:00,
2013-03-04 12:11:00,80.0,42.0,29.80,West,276,9.0,9.0,26,0.00,,,0.00,,2013-03-04 18:11:00,
2013-03-04 12:21:00,81.0,42.0,29.79,WSW,257,8.0,8.0,25,0.00,,,0.00,,2013-03-04 18:21:00,
2013-03-04 12:32:00,82.0,39.0,29.77,WSW,257,8.0,8.0,22,0.00,,,0.00,,2013-03-04 18:32:00,
2013-03-04 12:42:00,82.0,39.0,29.77,WSW,257,8.0,8.0,22,0.00,,,0.00,,2013-03-04 18:42:00,
2013-03-04 12:52:00,84.0,40.0,29.77,West,278,7.0,7.0,21,0.00,,,0.00,,2013-03-04 18:52:00,
2013-03-04 13:01:00,83.0,40.0,29.75,WSW,255,7.0,8.0,22,0.00,,,0.00,,2013-03-04 19:01:00,
2013-03-04 13:11:00,83.0,40.0,29.75,WSW,255,7.0,8.0,22,0.00,,,0.00,,2013-03-04 19:11:00,
2013-03-04 13:22:00,85.0,37.0,29.74,WSW,248,8.0,8.0,18,0.00,,,0.00,,2013-03-04 19:22:00,
2013-03-04 13:32:00,87.0,35.0,29.73,WSW,245,10.0,10.0,16,0.00,,,0.00,,2013-03-04 19:32:00,
2013-03-04 13:42:00,87.0,35.0,29.73,WSW,245,10.0,10.0,16,0.00,,,0.00,,2013-03-04 19:42:00,
2013-03-04 13:52:00,87.0,35.0,29.72,West,280,12.0,12.0,16,0.00,,,0.00,,2013-03-04 19:52:00,
2013-03-04 14:01:00,88.0,33.0,29.70,SW,217,12.0,15.0,14,0.00,,,0.00,,2013-03-04 20:01:00,
2013-03-04 14:11:00,84.0,33.0,29.70,WSW,242,14.0,14.0,16,0.00,,,0.00,,2013-03-04 20:11:00,
2013-03-04 14:22:00,84.0,33.0,29.70,WSW,242,14.0,14.0,16,0.00,,,0.00,,2013-03-04 20:22:00,
2013-03-04 14:32:00,84.0,33.0,29.70,WSW,255,13.0,13.0,16,0.00,,,0.00,,2013-03-04 20:32:00,
2013-03-04 14:42:00,84.0,33.0,29.70,WSW,255,13.0,13.0,16,0.00,,,0.00,,2013-03-04 20:42:00,
2013-03-04 14:52:00,84.0,31.0,29.68,SW,228,14.0,17.0,15,0.00,,,0.00,,2013-03-04 20:52:00,
2013-03-04 15:02:00,84.0,31.0,29.69,SW,233,15.0,19.0,15,0.00,,,0.00,,2013-03-04 21:02:00,
2013-03-04 15:11:00,84.0,31.0,29.69,SW,233,15.0,19.0,15,0.00,,,0.00,,2013-03-04 21:11:00,
2013-03-04 15:22:00,84.0,30.0,29.68,SSW,211,15.0,15.0,14,0.00,,,0.00,,2013-03-04 21:22:00,
2013-03-04 15:32:00,84.0,30.0,29.68,SW,218,14.0,14.0,14,0.00,,,0.00,,2013-03-04 21:32:00,
2013-03-04 15:42:00,84.0,30.0,29.68,SW,218,14.0,14.0,14,0.00,,,0.00,,2013-03-04 21:42:00,
2013-03-04 15:53:00,85.0,29.0,29.68,WSW,242,17.0,17.0,13,0.00,,,0.00,,2013-03-04 21:53:00,
2013-03-04 16:01:00,85.0,30.0,29.67,SW,226,14.0,14.0,14,0.00,,,0.00,,2013-03-04 22:01:00,
2013-03-04 16:12:00,85.0,30.0,29.67,SW,226,14.0,14.0,14,0.00,,,0.00,,2013-03-04 22:12:00,
2013-03-04 16:22:00,85.0,30.0,29.67,SW,225,13.0,13.0,14,0.00,,,0.00,,2013-03-04 22:22:00,
2013-03-04 16:32:00,84.0,30.0,29.67,SSW,201,8.0,9.0,14,0.00,,,0.00,,2013-03-04 22:32:00,
2013-03-04 16:42:00,84.0,30.0,29.67,SSW,201,8.0,9.0,14,0.00,,,0.00,,2013-03-04 22:42:00,
2013-03-04 16:52:00,82.0,31.0,29.67,SSW,207,7.0,7.0,16,0.00,,,0.00,,2013-03-04 22:52:00,
2013-03-04 17:01:00,81.0,31.0,29.66,West,263,8.0,8.0,16,0.00,,,0.00,,2013-03-04 23:01:00,
2013-03-04 17:11:00,81.0,31.0,29.66,West,263,8.0,8.0,16,0.00,,,0.00,,2013-03-04 23:11:00,
2013-03-04 17:21:00,79.0,29.0,29.67,SW,232,9.0,11.0,16,0.00,,,0.00,,2013-03-04 23:21:00,
2013-03-04 17:32:00,79.0,30.0,29.67,SW,217,8.0,9.0,17,0.00,,,0.00,,2013-03-04 23:32:00,
2013-03-04 17:42:00,79.0,30.0,29.67,SW,217,8.0,9.0,17,0.00,,,0.00,,2013-03-04 23:42:00,
2013-03-04 17:52:00,77.0,29.0,29.67,SW,217,6.0,9.0,17,0.00,,,0.00,,2013-03-04 23:52:00,
2013-03-04 18:01:00,76.0,29.0,29.67,SW,221,8.0,8.0,18,0.00,,,0.00,,2013-03-05 00:01:00,
2013-03-04 18:11:00,76.0,29.0,29.67,SW,221,8.0,8.0,18,0.00,,,0.00,,2013-03-05 00:11:00,
2013-03-04 18:21:00,74.0,29.0,29.67,SW,225,4.0,4.0,19,0.00,,,0.00,,2013-03-05 00:21:00,
2013-03-04 18:32:00,72.0,31.0,29.67,SSW,204,4.0,4.0,22,0.00,,,0.00,,2013-03-05 00:32:00,
2013-03-04 18:42:00,72.0,31.0,29.67,SSW,204,4.0,4.0,22,0.00,,,0.00,,2013-03-05 00:42:00,
2013-03-04 18:52:00,69.0,32.0,29.67,SSW,198,3.0,4.0,25,0.00,,,0.00,,2013-03-05 00:52:00,
2013-03-04 19:01:00,67.0,31.0,29.68,SSW,200,3.0,3.0,26,0.00,,,0.00,,2013-03-05 01:01:00,
2013-03-04 19:12:00,67.0,31.0,29.68,SSW,200,3.0,3.0,26,0.00,,,0.00,,2013-03-05 01:12:00,
2013-03-04 19:21:00,63.0,30.0,29.68,South,183,4.0,4.0,29,0.00,,,0.00,,2013-03-05 01:21:00,
2013-03-04 19:32:00,61.0,32.0,29.68,SSE,159,6.0,6.0,33,0.00,,,0.00,,2013-03-05 01:32:00,
2013-03-04 19:41:00,61.0,32.0,29.68,SSE,159,6.0,6.0,33,0.00,,,0.00,,2013-03-05 01:41:00,
2013-03-04 19:52:00,60.0,32.0,29.69,South,173,4.0,5.0,34,0.00,,,0.00,,2013-03-05 01:52:00,
2013-03-04 20:01:00,58.0,31.0,29.70,South,177,6.0,6.0,36,0.00,,,0.00,,2013-03-05 02:01:00,
2013-03-04 20:11:00,58.0,31.0,29.70,South,177,6.0,6.0,36,0.00,,,0.00,,2013-03-05 02:11:00,
2013-03-04 20:21:00,57.0,32.0,29.70,South,170,4.0,4.0,38,0.00,,,0.00,,2013-03-05 02:21:00,
2013-03-04 20:32:00,57.0,31.0,29.70,South,179,6.0,6.0,37,0.00,,,0.00,,2013-03-05 02:32:00,
2013-03-04 20:42:00,57.0,31.0,29.70,South,179,6.0,6.0,37,0.00,,,0.00,,2013-03-05 02:42:00,
2013-03-04 20:52:00,56.0,31.0,29.70,South,177,6.0,6.0,38,0.00,,,0.00,,2013-03-05 02:52:00,
2013-03-04 21:02:00,55.0,31.0,29.71,South,186,6.0,6.0,40,0.00,,,0.00,,2013-03-05 03:02:00,
2013-03-04 21:12:00,54.0,31.0,29.71,South,184,5.0,6.0,41,0.00,,,0.00,,2013-03-05 03:12:00,
2013-03-04 21:22:00,54.0,31.0,29.71,South,184,5.0,6.0,41,0.00,,,0.00,,2013-03-05 03:22:00,
2013-03-04 21:32:00,53.0,31.0,29.72,South,169,5.0,6.0,42,0.00,,,0.00,,2013-03-05 03:32:00,
2013-03-04 21:42:00,53.0,31.0,29.72,South,169,5.0,6.0,42,0.00,,,0.00,,2013-03-05 03:42:00,
2013-03-04 21:52:00,53.0,30.0,29.72,SSE,152,4.0,4.0,41,0.00,,,0.00,,2013-03-05 03:52:00,
2013-03-04 22:01:00,53.0,29.0,29.72,SSW,194,1.0,0.0,40,0.00,,,0.00,,2013-03-05 04:01:00,
2013-03-04 22:11:00,53.0,29.0,29.72,SSW,194,1.0,0.0,40,0.00,,,0.00,,2013-03-05 04:11:00,
2013-03-04 22:22:00,52.0,30.0,29.73,SSW,208,2.0,2.0,42,0.00,,,0.00,,2013-03-05 04:22:00,
2013-03-04 22:32:00,51.0,30.0,29.74,WNW,290,2.0,2.0,44,0.00,,,0.00,,2013-03-05 04:32:00,
2013-03-04 22:42:00,51.0,30.0,29.74,WNW,290,2.0,2.0,44,0.00,,,0.00,,2013-03-05 04:42:00,
2013-03-04 22:52:00,50.0,30.0,29.75,South,180,0.0,0.0,46,0.00,,,0.00,,2013-03-05 04:52:00,
2013-03-04 23:02:00,51.0,31.0,29.76,West,274,3.0,3.0,46,0.00,,,0.00,,2013-03-05 05:02:00,
2013-03-04 23:11:00,51.0,31.0,29.76,West,274,3.0,3.0,46,0.00,,,0.00,,2013-03-05 05:11:00,
2013-03-04 23:22:00,50.0,32.0,29.77,West,271,5.0,5.0,49,0.00,,,0.00,,2013-03-05 05:22:00,
2013-03-04 23:31:00,52.0,32.0,29.78,NW,315,4.0,7.0,47,0.00,,,0.00,,2013-03-05 05:31:00,
2013-03-04 23:42:00,52.0,32.0,29.78,NW,315,4.0,7.0,47,0.00,,,0.00,,2013-03-05 05:42:00,
2013-03-04 23:52:00,57.0,31.0,29.81,West,277,5.0,5.0,37,0.00,,,0.00,,2013-03-05 05:52:00,